Känerkinden
Datum - Zeit
TemperaturTaupunktFeuchteSolar Wind aus Richtung WindböenLuftdruck (QFF)RegenRegenstärkeTrend
02.05.2026 - 00.00Uhr11.4 °C3.4 °C58 %0.0 W/m²3.9 km/hOst-NO6.5 km/h1022.2 hPa0.0 mm0.0 mm/hwechselhaft
02.05.2026 - 00.05Uhr11.3 °C3.3 °C58 %0.0 W/m²3.8 km/hOsten6.5 km/h1022.2 hPa0.0 mm0.0 mm/hwechselhaft
02.05.2026 - 00.10Uhr11.2 °C3.2 °C58 %0.0 W/m²3.6 km/hOsten4.7 km/h1022.2 hPa0.0 mm0.0 mm/hwechselhaft
02.05.2026 - 00.15Uhr11.2 °C3.2 °C58 %0.0 W/m²3.8 km/hOsten4.7 km/h1022.2 hPa0.0 mm0.0 mm/hwechselhaft
02.05.2026 - 00.20Uhr11.2 °C3.1 °C58 %0.0 W/m²3.6 km/hOst-NO4.7 km/h1022.1 hPa0.0 mm0.0 mm/hwechselhaft
02.05.2026 - 00.25Uhr11.1 °C3.1 °C58 %0.0 W/m²3.4 km/hOst-NO4.7 km/h1022.2 hPa0.0 mm0.0 mm/hwechselhaft
02.05.2026 - 00.30Uhr11.1 °C3.0 °C58 %0.0 W/m²3.1 km/hNordosten4.7 km/h1022.1 hPa0.0 mm0.0 mm/hwechselhaft
02.05.2026 - 00.35Uhr11.1 °C2.9 °C57 %0.0 W/m²1.7 km/hNordosten3.2 km/h1022.2 hPa0.0 mm0.0 mm/hwechselhaft
02.05.2026 - 00.40Uhr11.1 °C2.7 °C56 %0.0 W/m²4.0 km/hNordosten6.5 km/h1022.1 hPa0.0 mm0.0 mm/hwechselhaft
02.05.2026 - 00.45Uhr11.2 °C2.7 °C56 %0.0 W/m²3.8 km/hOst-NO6.5 km/h1022.2 hPa0.0 mm0.0 mm/hwechselhaft
02.05.2026 - 00.50Uhr11.2 °C2.7 °C56 %0.0 W/m²3.3 km/hNordosten4.7 km/h1022.2 hPa0.0 mm0.0 mm/hwechselhaft
02.05.2026 - 00.55Uhr11.3 °C2.6 °C55 %0.0 W/m²1.2 km/hNordosten3.2 km/h1022.2 hPa0.0 mm0.0 mm/hwechselhaft
02.05.2026 - 01.00Uhr11.2 °C2.5 °C55 %0.0 W/m²2.4 km/hSüdosten6.5 km/h1022.2 hPa0.0 mm0.0 mm/hwechselhaft
02.05.2026 - 01.05Uhr11.2 °C2.5 °C55 %0.0 W/m²1.7 km/hOst-SO6.5 km/h1022.3 hPa0.0 mm0.0 mm/hwechselhaft
02.05.2026 - 01.10Uhr11.2 °C2.6 °C55 %0.0 W/m²2.4 km/hOst-SO6.5 km/h1022.3 hPa0.0 mm0.0 mm/hwechselhaft
02.05.2026 - 01.15Uhr11.2 °C2.7 °C56 %0.0 W/m²1.0 km/hOst-SO3.2 km/h1022.3 hPa0.0 mm0.0 mm/hwechselhaft
02.05.2026 - 01.20Uhr11.1 °C2.7 °C56 %0.0 W/m²0.0 km/hOst-SO0.0 km/h1022.3 hPa0.0 mm0.0 mm/hwechselhaft
02.05.2026 - 01.25Uhr10.9 °C2.6 °C57 %0.0 W/m²0.0 km/hOst-SO0.0 km/h1022.3 hPa0.0 mm0.0 mm/hwechselhaft
02.05.2026 - 01.30Uhr10.7 °C2.7 °C57 %0.0 W/m²0.0 km/hOst-SO0.0 km/h1022.3 hPa0.0 mm0.0 mm/hwechselhaft
02.05.2026 - 01.35Uhr10.6 °C2.4 °C57 %0.0 W/m²0.0 km/hOst-SO0.0 km/h1022.3 hPa0.0 mm0.0 mm/hwechselhaft
02.05.2026 - 01.40Uhr10.4 °C2.3 °C57 %0.0 W/m²0.0 km/hOst-SO0.0 km/h1022.3 hPa0.0 mm0.0 mm/hwechselhaft
02.05.2026 - 01.45Uhr10.3 °C2.4 °C58 %0.0 W/m²0.0 km/hOst-SO0.0 km/h1022.3 hPa0.0 mm0.0 mm/hwechselhaft
02.05.2026 - 01.50Uhr10.2 °C2.5 °C59 %0.0 W/m²0.0 km/hOsten0.0 km/h1022.2 hPa0.0 mm0.0 mm/hwechselhaft
02.05.2026 - 01.55Uhr10.0 °C2.5 °C59 %0.0 W/m²0.0 km/hOsten0.0 km/h1022.2 hPa0.0 mm0.0 mm/hwechselhaft
02.05.2026 - 02.00Uhr9.9 °C2.5 °C60 %0.0 W/m²0.0 km/hOsten0.0 km/h1022.2 hPa0.0 mm0.0 mm/hwechselhaft
02.05.2026 - 02.05Uhr9.9 °C2.5 °C60 %0.0 W/m²4.1 km/hOsten7.9 km/h1022.1 hPa0.0 mm0.0 mm/hwechselhaft
02.05.2026 - 02.10Uhr9.9 °C2.5 °C60 %0.0 W/m²2.9 km/hOsten6.5 km/h1022.1 hPa0.0 mm0.0 mm/hwechselhaft
02.05.2026 - 02.15Uhr9.9 °C2.7 °C61 %0.0 W/m²1.1 km/hOsten3.2 km/h1022.1 hPa0.0 mm0.0 mm/hwechselhaft
02.05.2026 - 02.20Uhr9.9 °C2.7 °C61 %0.0 W/m²1.6 km/hOsten3.2 km/h1022.1 hPa0.0 mm0.0 mm/hwechselhaft
02.05.2026 - 02.25Uhr9.9 °C2.7 °C61 %0.0 W/m²1.1 km/hOsten3.2 km/h1022.1 hPa0.0 mm0.0 mm/hwechselhaft
02.05.2026 - 02.30Uhr9.9 °C2.7 °C61 %0.0 W/m²3.6 km/hOsten6.5 km/h1022.0 hPa0.0 mm0.0 mm/hwechselhaft
02.05.2026 - 02.35Uhr9.9 °C2.7 °C61 %0.0 W/m²3.3 km/hOsten6.5 km/h1022.0 hPa0.0 mm0.0 mm/hwechselhaft
02.05.2026 - 02.40Uhr9.8 °C2.5 °C60 %0.0 W/m²3.0 km/hOsten6.5 km/h1022.0 hPa0.0 mm0.0 mm/hwechselhaft
02.05.2026 - 02.45Uhr9.8 °C2.4 °C60 %0.0 W/m²2.1 km/hOsten6.5 km/h1022.0 hPa0.0 mm0.0 mm/hwechselhaft
02.05.2026 - 02.50Uhr9.9 °C2.5 °C60 %0.0 W/m²3.6 km/hNordosten6.5 km/h1022.0 hPa0.0 mm0.0 mm/hwechselhaft
02.05.2026 - 02.55Uhr9.9 °C2.5 °C60 %0.0 W/m²2.6 km/hNordosten4.7 km/h1022.0 hPa0.0 mm0.0 mm/hwechselhaft
02.05.2026 - 03.00Uhr9.9 °C2.5 °C60 %0.0 W/m²2.7 km/hNordosten4.7 km/h1022.0 hPa0.0 mm0.0 mm/hwechselhaft
02.05.2026 - 03.05Uhr9.9 °C2.5 °C60 %0.0 W/m²3.9 km/hNordosten4.7 km/h1022.0 hPa0.0 mm0.0 mm/hwechselhaft
02.05.2026 - 03.10Uhr9.9 °C2.5 °C60 %0.0 W/m²2.0 km/hNordosten3.2 km/h1021.9 hPa0.0 mm0.0 mm/hwechselhaft
02.05.2026 - 03.15Uhr9.9 °C2.5 °C60 %0.0 W/m²2.6 km/hNordosten4.7 km/h1022.0 hPa0.0 mm0.0 mm/hwechselhaft
02.05.2026 - 03.20Uhr9.9 °C2.7 °C61 %0.0 W/m²4.7 km/hOsten6.5 km/h1021.9 hPa0.0 mm0.0 mm/hwechselhaft
02.05.2026 - 03.25Uhr9.8 °C2.6 °C61 %0.0 W/m²3.9 km/hOsten6.5 km/h1021.9 hPa0.0 mm0.0 mm/hwechselhaft
02.05.2026 - 03.30Uhr9.8 °C2.6 °C61 %0.0 W/m²3.0 km/hOsten4.7 km/h1021.9 hPa0.0 mm0.0 mm/hwechselhaft
02.05.2026 - 03.35Uhr9.7 °C2.7 °C61 %0.0 W/m²4.3 km/hOsten6.5 km/h1021.9 hPa0.0 mm0.0 mm/hwechselhaft
02.05.2026 - 03.40Uhr9.7 °C2.8 °C62 %0.0 W/m²5.5 km/hOsten7.9 km/h1021.8 hPa0.0 mm0.0 mm/hwechselhaft
02.05.2026 - 03.45Uhr9.7 °C2.6 °C61 %0.0 W/m²5.6 km/hOsten7.9 km/h1021.7 hPa0.0 mm0.0 mm/hwechselhaft
02.05.2026 - 03.50Uhr9.8 °C2.6 °C61 %0.0 W/m²5.1 km/hOsten7.9 km/h1021.7 hPa0.0 mm0.0 mm/hwechselhaft
02.05.2026 - 03.55Uhr9.8 °C2.6 °C61 %0.0 W/m²5.4 km/hOsten7.9 km/h1021.7 hPa0.0 mm0.0 mm/hwechselhaft
02.05.2026 - 04.00Uhr9.9 °C2.7 °C61 %0.0 W/m²5.4 km/hOsten7.9 km/h1021.7 hPa0.0 mm0.0 mm/hwechselhaft
02.05.2026 - 04.05Uhr10.0 °C2.7 °C61 %0.0 W/m²6.0 km/hOsten7.9 km/h1021.7 hPa0.0 mm0.0 mm/hwechselhaft
02.05.2026 - 04.10Uhr10.1 °C2.8 °C61 %0.0 W/m²4.3 km/hOsten7.9 km/h1021.7 hPa0.0 mm0.0 mm/hwechselhaft
02.05.2026 - 04.15Uhr10.1 °C2.7 °C60 %0.0 W/m²5.6 km/hOst-NO7.9 km/h1021.7 hPa0.0 mm0.0 mm/hwechselhaft
02.05.2026 - 04.20Uhr10.1 °C2.5 °C59 %0.0 W/m²5.7 km/hOsten9.7 km/h1021.6 hPa0.0 mm0.0 mm/hwechselhaft
02.05.2026 - 04.25Uhr10.2 °C2.5 °C59 %0.0 W/m²6.5 km/hOst-NO9.7 km/h1021.6 hPa0.0 mm0.0 mm/hwechselhaft
02.05.2026 - 04.30Uhr10.4 °C2.7 °C59 %0.0 W/m²5.0 km/hOsten7.9 km/h1021.6 hPa0.0 mm0.0 mm/hwechselhaft
02.05.2026 - 04.35Uhr10.6 °C2.9 °C59 %0.0 W/m²6.5 km/hOsten9.7 km/h1021.6 hPa0.0 mm0.0 mm/hwechselhaft
02.05.2026 - 04.40Uhr10.8 °C2.9 °C58 %0.0 W/m²8.3 km/hOsten13.0 km/h1021.6 hPa0.0 mm0.0 mm/hwechselhaft
02.05.2026 - 04.45Uhr11.0 °C3.0 °C58 %0.0 W/m²6.7 km/hOsten9.7 km/h1021.6 hPa0.0 mm0.0 mm/hwechselhaft
02.05.2026 - 04.50Uhr11.2 °C3.0 °C57 %0.0 W/m²5.7 km/hOsten9.7 km/h1021.6 hPa0.0 mm0.0 mm/hwechselhaft
02.05.2026 - 04.55Uhr11.3 °C3.1 °C57 %0.0 W/m²4.3 km/hOst-NO9.7 km/h1021.6 hPa0.0 mm0.0 mm/hwechselhaft
02.05.2026 - 05.00Uhr11.3 °C3.1 °C57 %0.0 W/m²1.7 km/hOst-NO4.7 km/h1021.6 hPa0.0 mm0.0 mm/hwechselhaft
02.05.2026 - 05.05Uhr11.3 °C3.1 °C57 %0.0 W/m²7.3 km/hWest-SW11.2 km/h1021.6 hPa0.0 mm0.0 mm/hwechselhaft
02.05.2026 - 05.10Uhr11.2 °C3.2 °C58 %0.0 W/m²4.3 km/hWesten7.9 km/h1021.7 hPa0.0 mm0.0 mm/hwechselhaft
02.05.2026 - 05.15Uhr11.0 °C3.5 °C60 %0.0 W/m²5.7 km/hSüdwesten6.5 km/h1021.8 hPa0.0 mm0.0 mm/hwechselhaft
02.05.2026 - 05.20Uhr10.8 °C3.1 °C59 %0.0 W/m²3.2 km/hSüdwesten6.5 km/h1021.8 hPa0.0 mm0.0 mm/hwechselhaft
02.05.2026 - 05.25Uhr10.6 °C2.9 °C59 %0.0 W/m²2.2 km/hSüdwesten3.2 km/h1021.7 hPa0.0 mm0.0 mm/hwechselhaft
02.05.2026 - 05.30Uhr10.3 °C2.7 °C59 %0.0 W/m²2.6 km/hSüdwesten6.5 km/h1021.7 hPa0.0 mm0.0 mm/hwechselhaft
02.05.2026 - 05.35Uhr10.2 °C2.9 °C60 %0.0 W/m²4.7 km/hSüdosten6.5 km/h1021.7 hPa0.0 mm0.0 mm/hwechselhaft
02.05.2026 - 05.40Uhr10.2 °C3.0 °C61 %0.0 W/m²2.5 km/hSüdosten6.5 km/h1021.7 hPa0.0 mm0.0 mm/hwechselhaft
02.05.2026 - 05.45Uhr10.1 °C3.0 °C61 %0.0 W/m²2.0 km/hSüdosten6.5 km/h1021.6 hPa0.0 mm0.0 mm/hwechselhaft
02.05.2026 - 05.50Uhr10.1 °C3.1 °C62 %0.0 W/m²3.2 km/hOst-NO6.5 km/h1021.6 hPa0.0 mm0.0 mm/hwechselhaft
02.05.2026 - 05.55Uhr10.1 °C3.2 °C62 %5.0 W/m²4.4 km/hOst-NO6.5 km/h1021.6 hPa0.0 mm0.0 mm/hwechselhaft
02.05.2026 - 06.00Uhr10.1 °C3.4 °C63 %7.0 W/m²3.6 km/hOsten7.9 km/h1021.6 hPa0.0 mm0.0 mm/hwechselhaft
02.05.2026 - 06.05Uhr10.1 °C3.4 °C63 %9.0 W/m²5.0 km/hOsten7.9 km/h1021.6 hPa0.0 mm0.0 mm/hwechselhaft
02.05.2026 - 06.10Uhr10.1 °C3.4 °C63 %9.0 W/m²4.3 km/hOsten7.9 km/h1021.6 hPa0.0 mm0.0 mm/hwechselhaft
02.05.2026 - 06.15Uhr10.0 °C3.5 °C64 %12.0 W/m²2.9 km/hOsten4.7 km/h1021.6 hPa0.0 mm0.0 mm/hwechselhaft
02.05.2026 - 06.20Uhr10.0 °C3.5 °C64 %16.0 W/m²4.1 km/hOst-NO6.5 km/h1021.6 hPa0.0 mm0.0 mm/hwechselhaft
02.05.2026 - 06.25Uhr10.0 °C3.6 °C64 %21.0 W/m²4.0 km/hOst-NO6.5 km/h1021.6 hPa0.0 mm0.0 mm/hwechselhaft
02.05.2026 - 06.30Uhr10.0 °C3.7 °C65 %26.0 W/m²3.6 km/hOsten6.5 km/h1021.6 hPa0.0 mm0.0 mm/hwechselhaft
02.05.2026 - 06.35Uhr10.0 °C3.7 °C65 %30.0 W/m²4.6 km/hOsten7.9 km/h1021.6 hPa0.0 mm0.0 mm/hwechselhaft
02.05.2026 - 06.40Uhr10.0 °C3.9 °C66 %33.0 W/m²4.9 km/hOsten7.9 km/h1021.6 hPa0.0 mm0.0 mm/hwechselhaft
02.05.2026 - 06.45Uhr10.1 °C4.0 °C66 %46.0 W/m²5.6 km/hOsten7.9 km/h1021.6 hPa0.0 mm0.0 mm/hwechselhaft
02.05.2026 - 06.50Uhr10.1 °C4.0 °C66 %42.0 W/m²3.1 km/hOsten7.9 km/h1021.6 hPa0.0 mm0.0 mm/hwechselhaft
02.05.2026 - 06.55Uhr10.1 °C4.0 °C66 %46.0 W/m²2.8 km/hOsten6.5 km/h1021.6 hPa0.0 mm0.0 mm/hwechselhaft
02.05.2026 - 07.00Uhr10.3 °C4.2 °C66 %51.0 W/m²6.3 km/hOsten9.7 km/h1021.6 hPa0.0 mm0.0 mm/hwechselhaft
02.05.2026 - 07.05Uhr10.4 °C4.3 °C66 %60.0 W/m²4.1 km/hOsten7.9 km/h1021.6 hPa0.0 mm0.0 mm/hwechselhaft
02.05.2026 - 07.10Uhr10.5 °C4.4 °C66 %62.0 W/m²5.6 km/hOsten7.9 km/h1021.6 hPa0.0 mm0.0 mm/hwechselhaft
02.05.2026 - 07.15Uhr10.7 °C4.6 °C66 %63.0 W/m²5.6 km/hOsten7.9 km/h1021.7 hPa0.0 mm0.0 mm/hwechselhaft
02.05.2026 - 07.20Uhr10.8 °C4.7 °C66 %81.0 W/m²3.9 km/hOsten6.5 km/h1021.7 hPa0.0 mm0.0 mm/hwechselhaft
02.05.2026 - 07.25Uhr11.0 °C4.9 °C66 %83.0 W/m²5.2 km/hOsten7.9 km/h1021.7 hPa0.0 mm0.0 mm/hwechselhaft
02.05.2026 - 07.30Uhr11.2 °C5.0 °C65 %113.0 W/m²5.4 km/hOsten7.9 km/h1021.7 hPa0.0 mm0.0 mm/hwechselhaft
02.05.2026 - 07.35Uhr11.4 °C5.1 °C65 %121.0 W/m²6.6 km/hOsten9.7 km/h1021.7 hPa0.0 mm0.0 mm/hwechselhaft
02.05.2026 - 07.40Uhr11.6 °C5.0 °C64 %125.0 W/m²5.6 km/hOsten7.9 km/h1021.7 hPa0.0 mm0.0 mm/hwechselhaft
02.05.2026 - 07.45Uhr11.8 °C5.2 °C64 %153.0 W/m²5.6 km/hOst-NO7.9 km/h1021.7 hPa0.0 mm0.0 mm/hwechselhaft
02.05.2026 - 07.50Uhr12.1 °C5.5 °C64 %178.0 W/m²4.0 km/hOsten7.9 km/h1021.7 hPa0.0 mm0.0 mm/hwechselhaft
02.05.2026 - 07.55Uhr12.5 °C5.9 °C64 %190.0 W/m²4.6 km/hOsten6.5 km/h1021.7 hPa0.0 mm0.0 mm/hwechselhaft
02.05.2026 - 08.00Uhr12.8 °C6.2 °C64 %209.0 W/m²3.1 km/hOsten6.5 km/h1021.7 hPa0.0 mm0.0 mm/hwechselhaft
02.05.2026 - 08.05Uhr13.2 °C6.4 °C63 %230.0 W/m²3.5 km/hOsten6.5 km/h1021.7 hPa0.0 mm0.0 mm/hwechselhaft
02.05.2026 - 08.10Uhr13.6 °C6.6 °C63 %230.0 W/m²3.8 km/hOst-SO7.9 km/h1021.7 hPa0.0 mm0.0 mm/hwechselhaft
02.05.2026 - 08.15Uhr13.9 °C6.4 °C60 %244.0 W/m²5.6 km/hOsten7.9 km/h1021.7 hPa0.0 mm0.0 mm/hwechselhaft
02.05.2026 - 08.20Uhr14.2 °C6.5 °C60 %287.0 W/m²5.3 km/hOsten7.9 km/h1021.7 hPa0.0 mm0.0 mm/hwechselhaft
02.05.2026 - 08.25Uhr14.4 °C6.6 °C59 %287.0 W/m²4.9 km/hOsten7.9 km/h1021.6 hPa0.0 mm0.0 mm/hwechselhaft
02.05.2026 - 08.30Uhr14.8 °C6.9 °C59 %292.0 W/m²5.6 km/hOst-SO7.9 km/h1021.6 hPa0.0 mm0.0 mm/hwechselhaft
02.05.2026 - 08.35Uhr15.1 °C7.0 °C59 %302.0 W/m²4.6 km/hOsten7.9 km/h1021.6 hPa0.0 mm0.0 mm/hwechselhaft
02.05.2026 - 08.40Uhr15.3 °C7.2 °C58 %301.0 W/m²3.6 km/hOsten4.7 km/h1021.6 hPa0.0 mm0.0 mm/hwechselhaft
02.05.2026 - 08.45Uhr15.6 °C7.4 °C58 %308.0 W/m²3.0 km/hOsten4.7 km/h1021.6 hPa0.0 mm0.0 mm/hwechselhaft
02.05.2026 - 08.50Uhr15.8 °C7.7 °C59 %315.0 W/m²3.0 km/hOsten4.7 km/h1021.6 hPa0.0 mm0.0 mm/hwechselhaft
02.05.2026 - 08.55Uhr16.1 °C8.1 °C59 %348.0 W/m²3.2 km/hOsten6.5 km/h1021.5 hPa0.0 mm0.0 mm/hwechselhaft
02.05.2026 - 09.00Uhr16.4 °C8.2 °C58 %339.0 W/m²3.3 km/hOsten6.5 km/h1021.5 hPa0.0 mm0.0 mm/hwechselhaft
02.05.2026 - 09.05Uhr16.7 °C8.3 °C58 %338.0 W/m²3.0 km/hOsten6.5 km/h1021.5 hPa0.0 mm0.0 mm/hwechselhaft
02.05.2026 - 09.10Uhr17.0 °C8.6 °C58 %346.0 W/m²1.6 km/hOst-SO3.2 km/h1021.5 hPa0.0 mm0.0 mm/hwechselhaft
02.05.2026 - 09.15Uhr17.3 °C8.7 °C57 %332.0 W/m²2.4 km/hOst-SO6.5 km/h1021.5 hPa0.0 mm0.0 mm/hwechselhaft
02.05.2026 - 09.20Uhr17.6 °C9.0 °C57 %360.0 W/m²0.7 km/hOst-SO1.4 km/h1021.5 hPa0.0 mm0.0 mm/hwechselhaft
02.05.2026 - 09.25Uhr17.8 °C9.4 °C58 %357.0 W/m²1.9 km/hOst-SO3.2 km/h1021.5 hPa0.0 mm0.0 mm/hwechselhaft
02.05.2026 - 09.30Uhr18.1 °C9.7 °C58 %380.0 W/m²0.8 km/hOst-SO3.2 km/h1021.5 hPa0.0 mm0.0 mm/hwechselhaft
02.05.2026 - 09.35Uhr18.3 °C9.6 °C57 %381.0 W/m²1.1 km/hOst-SO3.2 km/h1021.4 hPa0.0 mm0.0 mm/hwechselhaft
02.05.2026 - 09.40Uhr18.6 °C9.5 °C56 %406.0 W/m²3.8 km/hOsten7.9 km/h1021.4 hPa0.0 mm0.0 mm/hwechselhaft
02.05.2026 - 09.45Uhr18.9 °C9.7 °C55 %436.0 W/m²1.7 km/hOsten6.5 km/h1021.3 hPa0.0 mm0.0 mm/hwechselhaft
02.05.2026 - 09.50Uhr19.2 °C9.9 °C55 %459.0 W/m²1.0 km/hOsten3.2 km/h1021.3 hPa0.0 mm0.0 mm/hwechselhaft
02.05.2026 - 09.55Uhr19.4 °C10.0 °C55 %466.0 W/m²2.9 km/hNord-NO6.5 km/h1021.3 hPa0.0 mm0.0 mm/hwechselhaft
02.05.2026 - 10.00Uhr19.4 °C10.0 °C55 %526.0 W/m²2.3 km/hWest-NW6.5 km/h1021.2 hPa0.0 mm0.0 mm/hwechselhaft
02.05.2026 - 10.05Uhr19.6 °C10.3 °C55 %554.0 W/m²3.1 km/hNordosten6.5 km/h1021.2 hPa0.0 mm0.0 mm/hwechselhaft
02.05.2026 - 10.10Uhr19.5 °C10.3 °C55 %563.0 W/m²3.6 km/hNord-NO7.9 km/h1021.2 hPa0.0 mm0.0 mm/hwechselhaft
02.05.2026 - 10.15Uhr19.5 °C10.4 °C56 %584.0 W/m²5.2 km/hNordwesten9.7 km/h1021.2 hPa0.0 mm0.0 mm/hwechselhaft
02.05.2026 - 10.20Uhr19.6 °C10.6 °C56 %589.0 W/m²5.5 km/hNordwesten9.7 km/h1021.2 hPa0.0 mm0.0 mm/hwechselhaft
02.05.2026 - 10.25Uhr19.5 °C10.4 °C56 %601.0 W/m²5.4 km/hNordwesten9.7 km/h1021.2 hPa0.0 mm0.0 mm/hwechselhaft
02.05.2026 - 10.30Uhr19.5 °C10.4 °C56 %615.0 W/m²3.0 km/hWest-NW6.5 km/h1021.2 hPa0.0 mm0.0 mm/hwechselhaft
02.05.2026 - 10.35Uhr19.6 °C10.4 °C55 %610.0 W/m²3.7 km/hWest-NW6.5 km/h1021.2 hPa0.0 mm0.0 mm/hwechselhaft
02.05.2026 - 10.40Uhr19.8 °C10.5 °C55 %610.0 W/m²2.8 km/hWest-NW4.7 km/h1021.1 hPa0.0 mm0.0 mm/hwechselhaft
02.05.2026 - 10.45Uhr19.9 °C10.7 °C55 %642.0 W/m²5.3 km/hNordwesten7.9 km/h1021.1 hPa0.0 mm0.0 mm/hwechselhaft
02.05.2026 - 10.50Uhr19.9 °C10.5 °C54 %645.0 W/m²4.4 km/hNorden7.9 km/h1021.1 hPa0.0 mm0.0 mm/hwechselhaft
02.05.2026 - 10.55Uhr20.0 °C11.0 °C56 %649.0 W/m²3.5 km/hOst-NO9.7 km/h1021.0 hPa0.0 mm0.0 mm/hwechselhaft
02.05.2026 - 11.00Uhr20.2 °C10.7 °C54 %654.0 W/m²5.8 km/hOsten9.7 km/h1021.0 hPa0.0 mm0.0 mm/hwechselhaft
02.05.2026 - 11.05Uhr20.4 °C11.1 °C55 %657.0 W/m²6.1 km/hOst-SO13.0 km/h1020.9 hPa0.0 mm0.0 mm/hwechselhaft
02.05.2026 - 11.10Uhr20.7 °C11.2 °C54 %680.0 W/m²5.8 km/hOst-NO13.0 km/h1020.9 hPa0.0 mm0.0 mm/hwechselhaft
02.05.2026 - 11.15Uhr20.8 °C10.9 °C53 %701.0 W/m²5.9 km/hNordwesten13.0 km/h1020.8 hPa0.0 mm0.0 mm/hwechselhaft
02.05.2026 - 11.20Uhr20.8 °C11.2 °C54 %698.0 W/m²3.2 km/hOsten7.9 km/h1020.8 hPa0.0 mm0.0 mm/hwechselhaft
02.05.2026 - 11.25Uhr20.9 °C11.2 °C54 %717.0 W/m²1.3 km/hNordosten3.2 km/h1020.7 hPa0.0 mm0.0 mm/hwechselhaft
02.05.2026 - 11.30Uhr21.1 °C11.3 °C54 %721.0 W/m²5.6 km/hOsten11.2 km/h1020.6 hPa0.0 mm0.0 mm/hwechselhaft
02.05.2026 - 11.35Uhr21.3 °C11.4 °C53 %708.0 W/m²5.9 km/hOsten11.2 km/h1020.6 hPa0.0 mm0.0 mm/hwechselhaft
02.05.2026 - 11.40Uhr21.4 °C11.3 °C53 %707.0 W/m²4.5 km/hNord-NO11.2 km/h1020.5 hPa0.0 mm0.0 mm/hwechselhaft
02.05.2026 - 11.45Uhr21.6 °C11.6 °C53 %708.0 W/m²5.8 km/hSüd-SO13.0 km/h1020.5 hPa0.0 mm0.0 mm/hwechselhaft
02.05.2026 - 11.50Uhr21.7 °C11.9 °C54 %752.0 W/m²8.9 km/hOst-SO14.4 km/h1020.4 hPa0.0 mm0.0 mm/hwechselhaft
02.05.2026 - 11.55Uhr21.7 °C11.8 °C53 %763.0 W/m²9.3 km/hOst-SO17.6 km/h1020.3 hPa0.0 mm0.0 mm/hwechselhaft
02.05.2026 - 12.00Uhr21.6 °C11.6 °C53 %773.0 W/m²9.1 km/hSüdosten17.6 km/h1020.3 hPa0.0 mm0.0 mm/hwechselhaft
02.05.2026 - 12.05Uhr21.6 °C11.7 °C53 %772.0 W/m²8.5 km/hSüdosten14.4 km/h1020.2 hPa0.0 mm0.0 mm/hwechselhaft
02.05.2026 - 12.10Uhr21.7 °C11.4 °C52 %745.0 W/m²9.3 km/hSüdosten14.4 km/h1020.1 hPa0.0 mm0.0 mm/hwechselhaft
02.05.2026 - 12.15Uhr21.6 °C11.2 °C51 %780.0 W/m²8.2 km/hOst-SO19.4 km/h1020.1 hPa0.0 mm0.0 mm/hwechselhaft
02.05.2026 - 12.20Uhr21.8 °C11.2 °C51 %807.0 W/m²6.6 km/hSüdosten11.2 km/h1020.0 hPa0.0 mm0.0 mm/hwechselhaft
02.05.2026 - 12.25Uhr22.0 °C11.3 °C51 %733.0 W/m²9.5 km/hOst-SO17.6 km/h1020.0 hPa0.0 mm0.0 mm/hwechselhaft
02.05.2026 - 12.30Uhr22.1 °C11.3 °C50 %779.0 W/m²8.2 km/hSüdosten14.4 km/h1019.9 hPa0.0 mm0.0 mm/hwechselhaft
02.05.2026 - 12.35Uhr22.2 °C11.2 °C50 %826.0 W/m²7.9 km/hOst-SO13.0 km/h1019.8 hPa0.0 mm0.0 mm/hwechselhaft
02.05.2026 - 12.40Uhr22.3 °C11.2 °C49 %807.0 W/m²8.9 km/hOst-SO14.4 km/h1019.8 hPa0.0 mm0.0 mm/hwechselhaft
02.05.2026 - 12.45Uhr22.6 °C11.0 °C48 %779.0 W/m²10.2 km/hOst-SO17.6 km/h1019.7 hPa0.0 mm0.0 mm/hwechselhaft
02.05.2026 - 12.50Uhr22.5 °C10.5 °C47 %784.0 W/m²8.9 km/hOst-SO14.4 km/h1019.7 hPa0.0 mm0.0 mm/hwechselhaft
02.05.2026 - 12.55Uhr22.5 °C10.5 °C47 %810.0 W/m²9.8 km/hOst-SO17.6 km/h1019.6 hPa0.0 mm0.0 mm/hwechselhaft
02.05.2026 - 13.00Uhr22.6 °C10.7 °C47 %830.0 W/m²9.9 km/hOst-SO14.4 km/h1019.6 hPa0.0 mm0.0 mm/hwechselhaft
02.05.2026 - 13.05Uhr22.6 °C10.7 °C47 %837.0 W/m²9.3 km/hOst-SO17.6 km/h1019.5 hPa0.0 mm0.0 mm/hwechselhaft
02.05.2026 - 13.10Uhr22.6 °C10.6 °C47 %786.0 W/m²7.0 km/hOst-SO14.4 km/h1019.5 hPa0.0 mm0.0 mm/hwechselhaft
02.05.2026 - 13.15Uhr22.9 °C10.7 °C46 %812.0 W/m²9.5 km/hOst-SO17.6 km/h1019.3 hPa0.0 mm0.0 mm/hwechselhaft
02.05.2026 - 13.20Uhr23.0 °C10.6 °C45 %817.0 W/m²10.0 km/hOst-SO17.6 km/h1019.3 hPa0.0 mm0.0 mm/hwechselhaft
02.05.2026 - 13.25Uhr23.1 °C10.7 °C46 %817.0 W/m²6.8 km/hOst-SO13.0 km/h1019.2 hPa0.0 mm0.0 mm/hwechselhaft
02.05.2026 - 13.30Uhr23.2 °C10.7 °C46 %793.0 W/m²9.2 km/hOst-SO14.4 km/h1019.1 hPa0.0 mm0.0 mm/hwechselhaft
02.05.2026 - 13.35Uhr22.9 °C10.3 °C45 %826.0 W/m²7.8 km/hOst-SO14.4 km/h1019.1 hPa0.0 mm0.0 mm/hwechselhaft
02.05.2026 - 13.40Uhr23.1 °C11.1 °C47 %823.0 W/m²7.9 km/hOst-SO13.0 km/h1019.0 hPa0.0 mm0.0 mm/hwechselhaft
02.05.2026 - 13.45Uhr23.4 °C10.7 °C45 %821.0 W/m²8.3 km/hOst-SO17.6 km/h1018.9 hPa0.0 mm0.0 mm/hwechselhaft
02.05.2026 - 13.50Uhr23.7 °C11.2 °C45 %819.0 W/m²8.0 km/hOst-SO16.2 km/h1018.8 hPa0.0 mm0.0 mm/hwechselhaft
02.05.2026 - 13.55Uhr23.7 °C10.3 °C43 %821.0 W/m²5.7 km/hOst-NO14.4 km/h1018.7 hPa0.0 mm0.0 mm/hwechselhaft
02.05.2026 - 14.00Uhr23.7 °C10.5 °C44 %823.0 W/m²9.7 km/hOst-SO17.6 km/h1018.6 hPa0.0 mm0.0 mm/hwechselhaft
02.05.2026 - 14.05Uhr23.7 °C10.7 °C44 %826.0 W/m²7.2 km/hOsten11.2 km/h1018.6 hPa0.0 mm0.0 mm/hwechselhaft
02.05.2026 - 14.10Uhr24.2 °C10.7 °C43 %830.0 W/m²6.5 km/hSüdosten17.6 km/h1018.5 hPa0.0 mm0.0 mm/hwechselhaft
02.05.2026 - 14.15Uhr23.7 °C9.7 °C41 %821.0 W/m²6.5 km/hOsten11.2 km/h1018.4 hPa0.0 mm0.0 mm/hwechselhaft
02.05.2026 - 14.20Uhr23.4 °C9.7 °C42 %724.0 W/m²2.7 km/hOst-SO9.7 km/h1018.4 hPa0.0 mm0.0 mm/hwechselhaft
02.05.2026 - 14.25Uhr23.7 °C10.4 °C43 %745.0 W/m²3.5 km/hSüd-SO7.9 km/h1018.3 hPa0.0 mm0.0 mm/hwechselhaft
02.05.2026 - 14.30Uhr23.9 °C10.4 °C43 %710.0 W/m²6.4 km/hOst-NO13.0 km/h1018.2 hPa0.0 mm0.0 mm/hwechselhaft
02.05.2026 - 14.35Uhr23.8 °C10.4 °C43 %684.0 W/m²5.9 km/hSüdosten11.2 km/h1018.2 hPa0.0 mm0.0 mm/hwechselhaft
02.05.2026 - 14.40Uhr23.6 °C10.3 °C43 %744.0 W/m²5.4 km/hSüdosten11.2 km/h1018.1 hPa0.0 mm0.0 mm/hwechselhaft
02.05.2026 - 14.45Uhr23.7 °C10.4 °C43 %752.0 W/m²7.1 km/hSüdosten13.0 km/h1018.1 hPa0.0 mm0.0 mm/hwechselhaft
02.05.2026 - 14.50Uhr23.6 °C9.4 °C40 %721.0 W/m²3.3 km/hNord-NO9.7 km/h1018.0 hPa0.0 mm0.0 mm/hwechselhaft
02.05.2026 - 14.55Uhr23.3 °C9.5 °C42 %726.0 W/m²3.7 km/hOsten11.2 km/h1017.9 hPa0.0 mm0.0 mm/hwechselhaft
02.05.2026 - 15.00Uhr23.9 °C10.2 °C42 %712.0 W/m²7.7 km/hOsten11.2 km/h1017.9 hPa0.0 mm0.0 mm/hwechselhaft
02.05.2026 - 15.05Uhr24.1 °C9.6 °C40 %694.0 W/m²7.8 km/hOst-SO13.0 km/h1017.8 hPa0.0 mm0.0 mm/hwechselhaft
02.05.2026 - 15.10Uhr24.0 °C9.3 °C39 %675.0 W/m²3.6 km/hOst-SO9.7 km/h1017.7 hPa0.0 mm0.0 mm/hwechselhaft
02.05.2026 - 15.15Uhr23.9 °C9.7 °C41 %728.0 W/m²5.9 km/hSüdosten11.2 km/h1017.6 hPa0.0 mm0.0 mm/hwechselhaft
02.05.2026 - 15.20Uhr23.9 °C9.3 °C40 %708.0 W/m²5.0 km/hOst-SO11.2 km/h1017.6 hPa0.0 mm0.0 mm/hwechselhaft
02.05.2026 - 15.25Uhr24.1 °C9.8 °C40 %721.0 W/m²6.5 km/hOst-SO11.2 km/h1017.5 hPa0.0 mm0.0 mm/hwechselhaft
02.05.2026 - 15.30Uhr24.2 °C9.4 °C39 %747.0 W/m²4.0 km/hSüdosten9.7 km/h1017.5 hPa0.0 mm0.0 mm/hwechselhaft
02.05.2026 - 15.35Uhr24.3 °C9.8 °C40 %749.0 W/m²3.2 km/hOst-SO7.9 km/h1017.4 hPa0.0 mm0.0 mm/hwechselhaft
02.05.2026 - 15.40Uhr24.8 °C10.2 °C40 %759.0 W/m²4.7 km/hOst-NO11.2 km/h1017.2 hPa0.0 mm0.0 mm/hwechselhaft
02.05.2026 - 15.45Uhr24.9 °C9.8 °C39 %759.0 W/m²5.1 km/hOst-NO13.0 km/h1017.2 hPa0.0 mm0.0 mm/hwechselhaft
02.05.2026 - 15.50Uhr25.1 °C9.9 °C38 %719.0 W/m²3.8 km/hOst-NO7.9 km/h1017.1 hPa0.0 mm0.0 mm/hwechselhaft
02.05.2026 - 15.55Uhr24.7 °C10.1 °C40 %684.0 W/m²4.2 km/hOsten7.9 km/h1017.1 hPa0.0 mm0.0 mm/hwechselhaft
02.05.2026 - 16.00Uhr24.9 °C9.9 °C39 %659.0 W/m²8.4 km/hOsten13.0 km/h1016.9 hPa0.0 mm0.0 mm/hwechselhaft
02.05.2026 - 16.05Uhr24.7 °C10.1 °C40 %640.0 W/m²10.0 km/hOsten17.6 km/h1016.8 hPa0.0 mm0.0 mm/hRegen
02.05.2026 - 16.10Uhr24.6 °C9.8 °C39 %647.0 W/m²7.6 km/hOsten13.0 km/h1016.7 hPa0.0 mm0.0 mm/hRegen
02.05.2026 - 16.15Uhr24.4 °C9.4 °C39 %643.0 W/m²4.2 km/hSüdosten9.7 km/h1016.7 hPa0.0 mm0.0 mm/hRegen
02.05.2026 - 16.20Uhr24.2 °C9.5 °C39 %608.0 W/m²6.6 km/hOst-NO13.0 km/h1016.6 hPa0.0 mm0.0 mm/hRegen
02.05.2026 - 16.25Uhr24.5 °C9.9 °C40 %606.0 W/m²8.7 km/hOst-NO16.2 km/h1016.5 hPa0.0 mm0.0 mm/hRegen
02.05.2026 - 16.30Uhr24.6 °C9.6 °C39 %589.0 W/m²6.2 km/hOst-NO13.0 km/h1016.5 hPa0.0 mm0.0 mm/hRegen
02.05.2026 - 16.35Uhr24.4 °C9.4 °C39 %598.0 W/m²1.8 km/hNorden4.7 km/h1016.4 hPa0.0 mm0.0 mm/hRegen
02.05.2026 - 16.40Uhr24.4 °C10.2 °C41 %591.0 W/m²5.9 km/hOsten14.4 km/h1016.3 hPa0.0 mm0.0 mm/hRegen
02.05.2026 - 16.45Uhr24.9 °C10.1 °C39 %550.0 W/m²8.8 km/hOst-SO17.6 km/h1016.3 hPa0.0 mm0.0 mm/hRegen
02.05.2026 - 16.50Uhr24.8 °C9.9 °C39 %552.0 W/m²4.9 km/hOsten9.7 km/h1016.2 hPa0.0 mm0.0 mm/hRegen
02.05.2026 - 16.55Uhr24.7 °C9.8 °C39 %550.0 W/m²2.9 km/hOsten6.5 km/h1016.0 hPa0.0 mm0.0 mm/hRegen
02.05.2026 - 17.00Uhr25.0 °C9.8 °C38 %541.0 W/m²1.9 km/hOst-NO6.5 km/h1016.0 hPa0.0 mm0.0 mm/hRegen
02.05.2026 - 17.05Uhr24.8 °C9.7 °C39 %527.0 W/m²8.6 km/hOsten13.0 km/h1015.9 hPa0.0 mm0.0 mm/hwechselhaft
02.05.2026 - 17.10Uhr24.7 °C9.6 °C39 %508.0 W/m²3.9 km/hNordosten13.0 km/h1015.9 hPa0.0 mm0.0 mm/hwechselhaft
02.05.2026 - 17.15Uhr24.6 °C9.7 °C39 %469.0 W/m²3.0 km/hOsten7.9 km/h1015.9 hPa0.0 mm0.0 mm/hwechselhaft
02.05.2026 - 17.20Uhr24.5 °C9.7 °C39 %425.0 W/m²3.1 km/hSüdosten6.5 km/h1015.8 hPa0.0 mm0.0 mm/hwechselhaft
02.05.2026 - 17.25Uhr24.5 °C9.3 °C38 %274.0 W/m²5.9 km/hSüdosten11.2 km/h1015.8 hPa0.0 mm0.0 mm/hwechselhaft
02.05.2026 - 17.30Uhr24.2 °C8.9 °C38 %260.0 W/m²2.5 km/hSüd-SO7.9 km/h1015.7 hPa0.0 mm0.0 mm/hwechselhaft
02.05.2026 - 17.35Uhr24.2 °C9.3 °C39 %306.0 W/m²4.5 km/hSüdosten9.7 km/h1015.6 hPa0.0 mm0.0 mm/hwechselhaft
02.05.2026 - 17.40Uhr24.2 °C9.8 °C40 %362.0 W/m²5.8 km/hSüdosten9.7 km/h1015.6 hPa0.0 mm0.0 mm/hwechselhaft
02.05.2026 - 17.45Uhr24.2 °C9.5 °C39 %318.0 W/m²3.5 km/hSüdosten7.9 km/h1015.6 hPa0.0 mm0.0 mm/hwechselhaft
02.05.2026 - 17.50Uhr24.1 °C9.6 °C40 %334.0 W/m²5.2 km/hOst-SO9.7 km/h1015.6 hPa0.0 mm0.0 mm/hwechselhaft
02.05.2026 - 17.55Uhr24.2 °C10.0 °C41 %323.0 W/m²3.3 km/hOst-SO6.5 km/h1015.6 hPa0.0 mm0.0 mm/hwechselhaft
02.05.2026 - 18.00Uhr24.2 °C9.7 °C40 %318.0 W/m²4.2 km/hSüdosten9.7 km/h1015.6 hPa0.0 mm0.0 mm/hwechselhaft
02.05.2026 - 18.05Uhr24.2 °C9.7 °C40 %309.0 W/m²6.4 km/hSüdosten11.2 km/h1015.5 hPa0.0 mm0.0 mm/hRegen
02.05.2026 - 18.10Uhr24.1 °C9.4 °C39 %271.0 W/m²5.8 km/hOst-SO9.7 km/h1015.4 hPa0.0 mm0.0 mm/hRegen
02.05.2026 - 18.15Uhr24.1 °C9.3 °C39 %234.0 W/m²4.5 km/hOsten9.7 km/h1015.3 hPa0.0 mm0.0 mm/hRegen
02.05.2026 - 18.20Uhr24.0 °C9.3 °C39 %206.0 W/m²5.5 km/hSüd-SO11.2 km/h1015.2 hPa0.0 mm0.0 mm/hRegen
02.05.2026 - 18.25Uhr23.9 °C9.6 °C40 %202.0 W/m²4.8 km/hOst-SO9.7 km/h1015.1 hPa0.0 mm0.0 mm/hRegen
02.05.2026 - 18.30Uhr23.7 °C9.3 °C40 %169.0 W/m²4.9 km/hSüd-SO9.7 km/h1015.1 hPa0.0 mm0.0 mm/hRegen
02.05.2026 - 18.35Uhr23.6 °C9.0 °C40 %125.0 W/m²4.0 km/hSüdosten9.7 km/h1015.0 hPa0.0 mm0.0 mm/hRegen
02.05.2026 - 18.40Uhr23.4 °C8.9 °C40 %123.0 W/m²6.1 km/hSüdosten9.7 km/h1015.0 hPa0.0 mm0.0 mm/hRegen
02.05.2026 - 18.45Uhr23.3 °C9.1 °C41 %123.0 W/m²3.4 km/hSüd-SO7.9 km/h1015.0 hPa0.0 mm0.0 mm/hRegen
02.05.2026 - 18.50Uhr23.1 °C9.2 °C41 %100.0 W/m²3.8 km/hSüd-SO7.9 km/h1015.0 hPa0.0 mm0.0 mm/hRegen
02.05.2026 - 18.55Uhr23.0 °C9.0 °C41 %86.0 W/m²5.1 km/hSüd-SO7.9 km/h1014.9 hPa0.0 mm0.0 mm/hRegen
02.05.2026 - 19.00Uhr22.9 °C9.3 °C42 %132.0 W/m²4.4 km/hSüden11.2 km/h1014.9 hPa0.0 mm0.0 mm/hRegen
02.05.2026 - 19.05Uhr22.8 °C8.9 °C41 %146.0 W/m²5.2 km/hSüden9.7 km/h1014.9 hPa0.0 mm0.0 mm/hwechselhaft
02.05.2026 - 19.10Uhr22.8 °C9.1 °C42 %142.0 W/m²5.0 km/hSüden9.7 km/h1014.9 hPa0.0 mm0.0 mm/hwechselhaft
02.05.2026 - 19.15Uhr22.8 °C9.2 °C42 %90.0 W/m²3.6 km/hSüden7.9 km/h1014.9 hPa0.0 mm0.0 mm/hwechselhaft
02.05.2026 - 19.20Uhr22.8 °C9.0 °C41 %95.0 W/m²5.1 km/hSüd-SO9.7 km/h1014.9 hPa0.0 mm0.0 mm/hwechselhaft
02.05.2026 - 19.25Uhr22.8 °C8.9 °C41 %95.0 W/m²5.2 km/hSüd-SO9.7 km/h1014.9 hPa0.0 mm0.0 mm/hwechselhaft
02.05.2026 - 19.30Uhr22.7 °C8.9 °C41 %88.0 W/m²2.6 km/hSüden6.5 km/h1014.9 hPa0.0 mm0.0 mm/hwechselhaft
02.05.2026 - 19.35Uhr22.7 °C9.6 °C43 %72.0 W/m²1.6 km/hSüden3.2 km/h1014.9 hPa0.0 mm0.0 mm/hwechselhaft
02.05.2026 - 19.40Uhr22.5 °C9.4 °C43 %65.0 W/m²3.3 km/hSüd-SW7.9 km/h1015.0 hPa0.0 mm0.0 mm/hwechselhaft
02.05.2026 - 19.45Uhr22.4 °C9.3 °C44 %63.0 W/m²4.1 km/hSüd-SW7.9 km/h1014.9 hPa0.0 mm0.0 mm/hwechselhaft
02.05.2026 - 19.50Uhr22.3 °C9.3 °C44 %53.0 W/m²2.5 km/hSüden6.5 km/h1014.9 hPa0.0 mm0.0 mm/hwechselhaft
02.05.2026 - 19.55Uhr22.3 °C9.6 °C44 %47.0 W/m²2.1 km/hSüden6.5 km/h1014.9 hPa0.0 mm0.0 mm/hwechselhaft
02.05.2026 - 20.00Uhr22.1 °C9.4 °C44 %44.0 W/m²2.3 km/hSüden6.5 km/h1014.9 hPa0.0 mm0.0 mm/hwechselhaft
02.05.2026 - 20.05Uhr22.1 °C10.0 °C46 %37.0 W/m²0.7 km/hSüden3.2 km/h1014.9 hPa0.0 mm0.0 mm/hwechselhaft
02.05.2026 - 20.10Uhr21.9 °C10.3 °C48 %32.0 W/m²0.7 km/hSüd-SO3.2 km/h1014.9 hPa0.0 mm0.0 mm/hwechselhaft
02.05.2026 - 20.15Uhr21.7 °C10.6 °C49 %26.0 W/m²4.2 km/hWesten7.9 km/h1015.0 hPa0.0 mm0.0 mm/hwechselhaft
02.05.2026 - 20.20Uhr21.3 °C10.6 °C50 %19.0 W/m²6.1 km/hWesten7.9 km/h1015.0 hPa0.0 mm0.0 mm/hwechselhaft
02.05.2026 - 20.25Uhr20.8 °C10.5 °C52 %14.0 W/m²6.2 km/hWesten11.2 km/h1015.1 hPa0.0 mm0.0 mm/hwechselhaft
02.05.2026 - 20.30Uhr20.4 °C10.4 °C53 %11.0 W/m²5.3 km/hWesten7.9 km/h1015.2 hPa0.0 mm0.0 mm/hwechselhaft
02.05.2026 - 20.35Uhr20.0 °C10.4 °C54 %5.0 W/m²4.7 km/hWesten6.5 km/h1015.2 hPa0.0 mm0.0 mm/hwechselhaft
02.05.2026 - 20.40Uhr19.7 °C10.4 °C55 %0.0 W/m²5.4 km/hWest-SW7.9 km/h1015.2 hPa0.0 mm0.0 mm/hwechselhaft
02.05.2026 - 20.45Uhr19.3 °C10.4 °C56 %0.0 W/m²5.3 km/hWesten6.5 km/h1015.2 hPa0.0 mm0.0 mm/hwechselhaft
02.05.2026 - 20.50Uhr19.0 °C10.3 °C57 %0.0 W/m²3.8 km/hWesten6.5 km/h1015.3 hPa0.0 mm0.0 mm/hwechselhaft
02.05.2026 - 20.55Uhr18.7 °C10.1 °C57 %0.0 W/m²3.0 km/hWesten4.7 km/h1015.3 hPa0.0 mm0.0 mm/hwechselhaft
02.05.2026 - 21.00Uhr18.4 °C9.9 °C58 %0.0 W/m²3.5 km/hWesten4.7 km/h1015.3 hPa0.0 mm0.0 mm/hwechselhaft
02.05.2026 - 21.05Uhr18.2 °C9.7 °C58 %0.0 W/m²3.7 km/hWesten4.7 km/h1015.3 hPa0.0 mm0.0 mm/hwechselhaft
02.05.2026 - 21.10Uhr17.9 °C9.4 °C58 %0.0 W/m²2.4 km/hWesten4.7 km/h1015.3 hPa0.0 mm0.0 mm/hwechselhaft
02.05.2026 - 21.15Uhr17.6 °C9.4 °C59 %0.0 W/m²2.6 km/hWesten4.7 km/h1015.3 hPa0.0 mm0.0 mm/hwechselhaft
02.05.2026 - 21.20Uhr17.4 °C9.6 °C60 %0.0 W/m²3.1 km/hSüdwesten4.7 km/h1015.3 hPa0.0 mm0.0 mm/hwechselhaft
02.05.2026 - 21.25Uhr17.2 °C9.9 °C62 %0.0 W/m²2.1 km/hSüdwesten4.7 km/h1015.4 hPa0.0 mm0.0 mm/hwechselhaft
02.05.2026 - 21.30Uhr17.1 °C9.8 °C62 %0.0 W/m²1.5 km/hSüden3.2 km/h1015.4 hPa0.0 mm0.0 mm/hwechselhaft
02.05.2026 - 21.35Uhr17.0 °C9.9 °C63 %0.0 W/m²0.0 km/hSüden0.0 km/h1015.5 hPa0.0 mm0.0 mm/hwechselhaft
02.05.2026 - 21.40Uhr16.8 °C9.9 °C64 %0.0 W/m²0.0 km/hSüden0.0 km/h1015.5 hPa0.0 mm0.0 mm/hwechselhaft
02.05.2026 - 21.45Uhr16.7 °C9.5 °C63 %0.0 W/m²0.0 km/hSüden0.0 km/h1015.5 hPa0.0 mm0.0 mm/hwechselhaft
02.05.2026 - 21.50Uhr16.6 °C9.3 °C62 %0.0 W/m²0.0 km/hSüden0.0 km/h1015.5 hPa0.0 mm0.0 mm/hwechselhaft
02.05.2026 - 21.55Uhr16.4 °C9.3 °C63 %0.0 W/m²0.0 km/hSüden0.0 km/h1015.5 hPa0.0 mm0.0 mm/hwechselhaft
02.05.2026 - 22.00Uhr16.2 °C9.6 °C65 %0.0 W/m²0.0 km/hSüden0.0 km/h1015.6 hPa0.0 mm0.0 mm/hwechselhaft
02.05.2026 - 22.05Uhr16.1 °C9.5 °C65 %0.0 W/m²0.0 km/hSüden0.0 km/h1015.6 hPa0.0 mm0.0 mm/hwechselhaft
02.05.2026 - 22.10Uhr16.0 °C9.3 °C65 %0.0 W/m²0.0 km/hSüden0.0 km/h1015.6 hPa0.0 mm0.0 mm/hwechselhaft
02.05.2026 - 22.15Uhr15.8 °C9.2 °C65 %0.0 W/m²0.0 km/hSüden0.0 km/h1015.6 hPa0.0 mm0.0 mm/hwechselhaft
02.05.2026 - 22.20Uhr15.7 °C9.0 °C65 %0.0 W/m²0.0 km/hSüden0.0 km/h1015.6 hPa0.0 mm0.0 mm/hwechselhaft
02.05.2026 - 22.25Uhr15.6 °C9.4 °C67 %0.0 W/m²0.0 km/hSüden0.0 km/h1015.6 hPa0.0 mm0.0 mm/hwechselhaft
02.05.2026 - 22.30Uhr15.4 °C9.7 °C69 %0.0 W/m²1.0 km/hOsten3.2 km/h1015.7 hPa0.0 mm0.0 mm/hwechselhaft
02.05.2026 - 22.35Uhr15.3 °C9.6 °C69 %0.0 W/m²0.7 km/hOsten3.2 km/h1015.7 hPa0.0 mm0.0 mm/hwechselhaft
02.05.2026 - 22.40Uhr15.2 °C9.9 °C70 %0.0 W/m²0.4 km/hOsten1.4 km/h1015.7 hPa0.0 mm0.0 mm/hwechselhaft
02.05.2026 - 22.45Uhr15.1 °C10.1 °C72 %0.0 W/m²1.1 km/hOst-NO3.2 km/h1015.7 hPa0.0 mm0.0 mm/hwechselhaft
02.05.2026 - 22.50Uhr15.1 °C10.1 °C72 %0.0 W/m²1.4 km/hNordosten4.7 km/h1015.6 hPa0.0 mm0.0 mm/hwechselhaft
02.05.2026 - 22.55Uhr15.1 °C9.9 °C71 %0.0 W/m²0.0 km/hNordosten0.0 km/h1015.6 hPa0.0 mm0.0 mm/hwechselhaft
02.05.2026 - 23.00Uhr14.9 °C9.6 °C70 %0.0 W/m²0.0 km/hNordosten0.0 km/h1015.6 hPa0.0 mm0.0 mm/hwechselhaft
02.05.2026 - 23.05Uhr14.9 °C9.8 °C71 %0.0 W/m²0.3 km/hNordosten1.4 km/h1015.6 hPa0.0 mm0.0 mm/hwechselhaft
02.05.2026 - 23.10Uhr14.9 °C9.9 °C72 %0.0 W/m²2.8 km/hWest-SW4.7 km/h1015.7 hPa0.0 mm0.0 mm/hwechselhaft
02.05.2026 - 23.15Uhr14.9 °C9.9 °C72 %0.0 W/m²3.7 km/hWest-SW4.7 km/h1015.6 hPa0.0 mm0.0 mm/hwechselhaft
02.05.2026 - 23.20Uhr14.8 °C10.0 °C73 %0.0 W/m²3.9 km/hWest-SW4.7 km/h1015.7 hPa0.0 mm0.0 mm/hwechselhaft
02.05.2026 - 23.25Uhr14.8 °C9.9 °C72 %0.0 W/m²3.6 km/hWesten4.7 km/h1015.7 hPa0.0 mm0.0 mm/hwechselhaft
02.05.2026 - 23.30Uhr14.7 °C10.0 °C73 %0.0 W/m²2.4 km/hWesten3.2 km/h1015.7 hPa0.0 mm0.0 mm/hwechselhaft
02.05.2026 - 23.35Uhr14.7 °C10.1 °C74 %0.0 W/m²1.7 km/hWesten3.2 km/h1015.7 hPa0.0 mm0.0 mm/hwechselhaft
02.05.2026 - 23.40Uhr14.6 °C9.9 °C73 %0.0 W/m²2.3 km/hWesten4.7 km/h1015.7 hPa0.0 mm0.0 mm/hwechselhaft
02.05.2026 - 23.45Uhr14.6 °C9.8 °C73 %0.0 W/m²3.9 km/hWesten4.7 km/h1015.7 hPa0.0 mm0.0 mm/hwechselhaft
02.05.2026 - 23.50Uhr14.5 °C9.7 °C73 %0.0 W/m²3.7 km/hWesten4.7 km/h1015.8 hPa0.0 mm0.0 mm/hwechselhaft